Time;durP1;ratioP1;P1;durP2;ratioP2;P2;SDS_P1;SDS_P2;PMS_P1;PMS_P2;Temp;Humidity;BMP_temperature;BMP_pressure;BME280_temperature;BME280_humidity;BME280_pressure;Samples;Min_cycle;Max_cycle;Signal;HPM_P1;HPM_P2
2022/12/02 00:01:51;;;;;;;44.88;21.92;;;4.00;99.90;;;;;;5116632;28;20118;-69
2022/12/02 00:04:25;;;;;;;50.58;24.02;;;4.00;99.90;;;;;;5113790;28;20039;-69
2022/12/02 00:06:53;;;;;;;43.45;22.67;;;4.00;99.90;;;;;;5098043;28;20039;-69
2022/12/02 00:09:31;;;;;;;49.25;24.80;;;4.00;99.90;;;;;;5114342;28;20042;-68
2022/12/02 00:11:58;;;;;;;45.10;22.45;;;4.00;99.90;;;;;;5115295;28;20496;-68
2022/12/02 00:14:29;;;;;;;41.58;22.80;;;3.90;99.90;;;;;;5115825;28;20509;-68
2022/12/02 00:16:55;;;;;;;42.90;21.70;;;3.90;99.90;;;;;;5116115;28;20452;-68
2022/12/02 00:19:22;;;;;;;47.38;24.90;;;3.90;99.90;;;;;;5113602;28;20369;-68
2022/12/02 00:21:49;;;;;;;47.20;23.27;;;3.90;99.90;;;;;;5116299;28;20089;-69
2022/12/02 00:24:16;;;;;;;42.75;21.30;;;3.90;99.90;;;;;;5097229;28;20050;-69
2022/12/02 00:26:42;;;;;;;40.92;21.92;;;3.90;99.90;;;;;;5114841;28;20047;-69
2022/12/02 00:29:07;;;;;;;37.83;20.10;;;3.90;99.90;;;;;;5115388;28;20043;-69
2022/12/02 00:31:33;;;;;;;44.78;21.77;;;3.80;99.90;;;;;;5115318;28;20110;-69
2022/12/02 00:33:59;;;;;;;41.47;22.10;;;3.80;99.90;;;;;;5115622;28;20361;-68
2022/12/02 00:36:26;;;;;;;45.78;21.55;;;3.80;99.90;;;;;;5114189;28;20038;-68
2022/12/02 00:38:52;;;;;;;40.05;20.23;;;3.80;99.90;;;;;;5114932;28;20122;-68
2022/12/02 00:41:18;;;;;;;40.47;21.10;;;3.80;99.90;;;;;;5113995;28;20376;-68
2022/12/02 00:46:31;;;;;;;40.78;20.83;;;3.70;99.90;;;;;;5113932;28;20454;-68
2022/12/02 00:49:16;;;;;;;42.55;22.17;;;3.80;99.90;;;;;;5114374;28;20488;-68
2022/12/02 00:51:43;;;;;;;38.95;20.98;;;3.70;99.90;;;;;;5114331;28;20043;-69
2022/12/02 00:54:10;;;;;;;37.70;19.50;;;3.70;99.90;;;;;;5112982;28;20048;-68
2022/12/02 00:56:36;;;;;;;43.88;21.88;;;3.70;99.90;;;;;;5114338;28;20486;-68
2022/12/02 00:59:02;;;;;;;43.55;23.05;;;3.60;99.90;;;;;;5114057;28;20035;-68
2022/12/02 01:01:28;;;;;;;43.10;22.33;;;3.60;99.90;;;;;;5113825;28;20120;-68
2022/12/02 01:03:54;;;;;;;44.53;21.15;;;3.60;99.90;;;;;;5115155;28;20051;-68
2022/12/02 01:06:20;;;;;;;41.13;21.25;;;3.60;99.90;;;;;;5113552;28;20392;-68
2022/12/02 01:08:46;;;;;;;42.78;21.38;;;3.60;99.90;;;;;;5114312;28;20039;-68
2022/12/02 01:11:12;;;;;;;38.88;20.45;;;3.60;99.90;;;;;;5113420;28;20480;-68
2022/12/02 01:13:38;;;;;;;38.97;19.38;;;3.60;99.90;;;;;;5115119;28;20036;-69
2022/12/02 01:16:04;;;;;;;43.80;23.00;;;3.60;99.90;;;;;;5113715;27;20495;-68
2022/12/02 01:18:30;;;;;;;42.65;22.42;;;3.50;99.90;;;;;;5096911;28;20043;-68
2022/12/02 01:20:56;;;;;;;40.13;20.65;;;3.50;99.90;;;;;;5095676;28;20043;-68
2022/12/02 01:23:22;;;;;;;40.88;22.17;;;3.50;99.90;;;;;;5113197;28;20361;-68
2022/12/02 01:25:48;;;;;;;44.15;22.20;;;3.50;99.90;;;;;;5113271;28;20492;-68
2022/12/02 01:28:17;;;;;;;44.33;22.38;;;3.50;99.90;;;;;;5112236;28;20047;-68
2022/12/02 01:30:43;;;;;;;45.00;21.55;;;3.50;99.90;;;;;;5113537;28;20119;-68
2022/12/02 01:33:08;;;;;;;43.00;22.25;;;3.50;99.90;;;;;;5114250;28;20551;-68
2022/12/02 01:35:34;;;;;;;42.75;23.42;;;3.50;99.90;;;;;;5113998;28;20039;-68
2022/12/02 01:38:00;;;;;;;42.95;21.45;;;3.50;99.90;;;;;;5113542;28;20035;-68
2022/12/02 01:40:28;;;;;;;39.45;21.38;;;3.50;99.90;;;;;;5113993;28;20047;-68
2022/12/02 01:42:53;;;;;;;37.53;20.25;;;3.50;99.90;;;;;;5112782;28;20117;-68
2022/12/02 01:45:19;;;;;;;43.47;22.92;;;3.50;99.90;;;;;;5112668;28;20475;-68
2022/12/02 01:47:45;;;;;;;43.67;21.67;;;3.50;99.90;;;;;;5113075;28;20123;-69
2022/12/02 01:50:13;;;;;;;39.40;20.95;;;3.50;99.90;;;;;;5111869;28;20544;-68
2022/12/02 01:52:39;;;;;;;44.65;22.17;;;3.50;99.90;;;;;;5113149;28;20039;-68
2022/12/02 01:55:09;;;;;;;42.95;21.23;;;3.50;99.90;;;;;;5112662;28;20094;-68
2022/12/02 01:57:35;;;;;;;41.00;21.38;;;3.50;99.90;;;;;;5113387;28;20039;-68
2022/12/02 02:00:02;;;;;;;45.72;20.42;;;3.40;99.90;;;;;;5113449;28;20521;-68
2022/12/02 02:02:34;;;;;;;42.80;21.17;;;3.40;99.90;;;;;;5113371;28;20039;-68
2022/12/02 02:05:23;;;;;;;38.47;20.67;;;3.50;99.90;;;;;;5111960;28;20118;-69
2022/12/02 02:07:52;;;;;;;36.97;19.10;;;3.40;99.90;;;;;;5112836;28;20438;-68
2022/12/02 02:10:19;;;;;;;45.20;21.77;;;3.40;99.90;;;;;;5112284;28;20044;-68
2022/12/02 02:12:45;;;;;;;42.65;20.00;;;3.40;99.90;;;;;;5113753;28;20437;-68
2022/12/02 02:15:13;;;;;;;42.03;21.40;;;3.40;99.90;;;;;;5112208;28;20048;-68
2022/12/02 02:17:39;;;;;;;35.20;18.38;;;3.40;99.90;;;;;;5112051;28;20044;-69
2022/12/02 02:20:08;;;;;;;42.10;21.15;;;3.40;99.90;;;;;;5113245;28;20054;-68
2022/12/02 02:23:07;;;;;;;36.72;18.63;;;3.40;99.90;;;;;;5113670;28;20047;-69
2022/12/02 02:25:38;;;;;;;35.65;18.17;;;3.40;99.90;;;;;;5111512;28;20051;-69
2022/12/02 02:28:05;;;;;;;36.58;17.52;;;3.40;99.90;;;;;;5112947;28;20392;-68
2022/12/02 02:30:33;;;;;;;36.38;18.00;;;3.40;99.90;;;;;;5113739;28;20414;-68
2022/12/02 02:33:01;;;;;;;36.70;16.85;;;3.30;99.90;;;;;;5111465;28;20503;-68
2022/12/02 02:35:27;;;;;;;32.08;17.60;;;3.30;99.90;;;;;;5111813;28;20526;-69
2022/12/02 02:37:55;;;;;;;29.40;17.27;;;3.30;99.90;;;;;;5111966;28;20484;-68
2022/12/02 02:40:22;;;;;;;37.42;17.90;;;3.30;99.90;;;;;;5112230;28;20050;-68
2022/12/02 02:42:56;;;;;;;36.30;17.45;;;3.30;99.90;;;;;;5113187;28;20487;-68
2022/12/02 02:45:26;;;;;;;34.88;18.23;;;3.30;99.90;;;;;;5112064;28;20430;-68
2022/12/02 02:47:53;;;;;;;33.70;18.00;;;3.30;99.90;;;;;;5111853;28;20537;-68
2022/12/02 02:50:19;;;;;;;33.00;17.95;;;3.30;99.90;;;;;;5112640;28;20488;-68
2022/12/02 02:52:45;;;;;;;34.17;17.52;;;3.30;99.90;;;;;;5111137;28;20089;-68
2022/12/02 02:55:19;;;;;;;36.40;17.80;;;3.30;99.90;;;;;;5094268;28;20071;-68
2022/12/02 02:57:45;;;;;;;35.83;18.77;;;3.30;99.90;;;;;;5113242;28;20047;-68
2022/12/02 03:00:11;;;;;;;35.80;19.05;;;3.30;99.90;;;;;;5110646;28;20373;-68
2022/12/02 03:02:37;;;;;;;38.65;19.77;;;3.30;99.90;;;;;;5111684;28;20082;-68
2022/12/02 03:05:05;;;;;;;38.58;18.67;;;3.30;99.90;;;;;;5112854;28;20071;-68
2022/12/02 03:07:31;;;;;;;37.80;19.98;;;3.30;99.90;;;;;;5111932;28;20038;-69
2022/12/02 03:09:57;;;;;;;39.45;18.52;;;3.30;99.90;;;;;;5112678;28;20039;-69
2022/12/02 03:12:23;;;;;;;36.33;17.55;;;3.30;99.90;;;;;;5112201;28;20042;-69
2022/12/02 03:14:49;;;;;;;39.28;19.40;;;3.30;99.90;;;;;;5110986;28;20046;-68
2022/12/02 03:17:15;;;;;;;36.00;18.70;;;3.20;99.90;;;;;;5112125;28;20488;-69
2022/12/02 03:19:42;;;;;;;37.38;19.10;;;3.20;99.90;;;;;;5112825;28;20111;-68
2022/12/02 03:22:09;;;;;;;37.53;19.23;;;3.20;99.90;;;;;;5111632;28;20035;-68
2022/12/02 03:24:36;;;;;;;40.20;18.52;;;3.20;99.90;;;;;;5111437;28;20047;-68
2022/12/02 03:27:03;;;;;;;45.95;19.77;;;3.20;99.90;;;;;;5111366;28;20396;-68
2022/12/02 03:29:29;;;;;;;41.95;21.85;;;3.20;99.90;;;;;;5110594;28;20073;-68
2022/12/02 03:31:57;;;;;;;41.90;21.00;;;3.20;99.90;;;;;;5111691;28;20042;-68
2022/12/02 03:34:23;;;;;;;41.25;19.90;;;3.30;99.90;;;;;;5110145;28;20132;-68
2022/12/02 03:36:48;;;;;;;48.05;20.88;;;3.30;99.90;;;;;;5111457;28;20491;-68
2022/12/02 03:39:14;;;;;;;41.50;19.77;;;3.20;99.90;;;;;;5110922;28;20407;-68
2022/12/02 03:41:40;;;;;;;39.42;19.75;;;3.30;99.90;;;;;;5111738;28;20154;-68
2022/12/02 03:44:06;;;;;;;41.92;21.30;;;3.20;99.90;;;;;;5110856;28;20414;-68
2022/12/02 03:46:32;;;;;;;41.53;19.83;;;3.20;99.90;;;;;;5112459;28;20032;-68
2022/12/02 03:49:00;;;;;;;43.63;21.73;;;3.20;99.90;;;;;;5111890;28;20043;-69
2022/12/02 03:51:26;;;;;;;43.35;21.25;;;3.20;99.90;;;;;;5111089;28;20387;-69
2022/12/02 03:53:52;;;;;;;42.67;19.17;;;3.20;99.90;;;;;;5111511;28;20043;-68
2022/12/02 03:56:18;;;;;;;47.15;22.13;;;3.20;99.90;;;;;;5110185;28;20043;-68
2022/12/02 03:58:50;;;;;;;39.25;20.98;;;3.20;99.90;;;;;;5094322;28;20392;-69
2022/12/02 04:01:17;;;;;;;43.72;19.35;;;3.20;99.90;;;;;;5110572;28;20134;-69
2022/12/02 04:03:42;;;;;;;37.83;18.60;;;3.20;99.90;;;;;;5093673;28;20036;-69
2022/12/02 04:06:09;;;;;;;47.05;21.70;;;3.20;99.90;;;;;;5110906;28;20484;-68
2022/12/02 04:08:35;;;;;;;42.10;22.25;;;3.20;99.90;;;;;;5111061;28;20084;-68
2022/12/02 04:11:01;;;;;;;39.75;21.08;;;3.20;99.90;;;;;;5111411;28;20035;-69
2022/12/02 04:13:27;;;;;;;40.92;20.08;;;3.20;99.90;;;;;;5111703;28;20043;-69
2022/12/02 04:15:53;;;;;;;39.53;19.42;;;3.30;99.90;;;;;;5112118;28;20418;-68
2022/12/02 04:18:19;;;;;;;38.25;19.50;;;3.30;99.90;;;;;;5109744;28;20517;-69
2022/12/02 04:20:44;;;;;;;43.35;20.58;;;3.30;99.90;;;;;;5112272;28;20416;-69
2022/12/02 04:23:10;;;;;;;40.33;19.27;;;3.20;99.90;;;;;;5113856;28;20161;-68
2022/12/02 04:25:36;;;;;;;42.65;21.65;;;3.30;99.90;;;;;;5114998;28;20404;-68
2022/12/02 04:28:02;;;;;;;41.50;19.70;;;3.20;99.90;;;;;;5115751;28;20116;-69
2022/12/02 04:30:27;;;;;;;39.78;19.98;;;3.30;99.90;;;;;;5114129;28;20419;-68
2022/12/02 04:32:53;;;;;;;40.22;19.30;;;3.30;99.90;;;;;;5113854;28;20385;-68
2022/12/02 04:35:19;;;;;;;39.38;19.52;;;3.30;99.90;;;;;;5115398;28;20395;-69
2022/12/02 04:37:44;;;;;;;36.80;18.95;;;3.30;99.90;;;;;;5113949;28;20050;-69
2022/12/02 04:40:11;;;;;;;36.78;19.52;;;3.30;99.90;;;;;;5113958;28;20377;-68
2022/12/02 04:42:36;;;;;;;36.30;17.88;;;3.30;99.90;;;;;;5114456;28;20103;-68
2022/12/02 04:45:03;;;;;;;32.53;18.33;;;3.30;99.90;;;;;;5113824;28;20406;-68
2022/12/02 04:47:30;;;;;;;43.42;20.55;;;3.30;99.90;;;;;;5114478;28;20396;-68
2022/12/02 04:49:55;;;;;;;37.80;18.00;;;3.30;99.90;;;;;;5097352;28;20092;-68
2022/12/02 04:52:21;;;;;;;39.33;20.73;;;3.30;99.90;;;;;;5112939;28;20497;-69
2022/12/02 04:54:52;;;;;;;41.10;21.60;;;3.30;99.90;;;;;;5115115;28;20058;-68
2022/12/02 04:57:18;;;;;;;38.00;19.80;;;3.30;99.90;;;;;;5113686;28;20061;-68
2022/12/02 04:59:44;;;;;;;35.17;19.83;;;3.30;99.90;;;;;;5113664;28;20490;-68
2022/12/02 05:02:09;;;;;;;43.63;21.35;;;3.30;99.90;;;;;;5113596;28;20044;-69
2022/12/02 05:04:36;;;;;;;39.70;20.90;;;3.30;99.90;;;;;;5115236;28;20409;-68
2022/12/02 05:07:02;;;;;;;36.58;18.85;;;3.30;99.90;;;;;;5095922;28;20054;-68
2022/12/02 05:09:27;;;;;;;37.03;19.23;;;3.30;99.90;;;;;;5113091;28;20039;-68
2022/12/02 05:11:53;;;;;;;44.40;20.10;;;3.30;99.90;;;;;;5113965;28;20395;-68
2022/12/02 05:14:19;;;;;;;42.25;18.52;;;3.30;99.90;;;;;;5112730;28;20040;-68
2022/12/02 05:16:44;;;;;;;39.75;18.58;;;3.30;99.90;;;;;;5113634;28;20569;-68
2022/12/02 05:19:10;;;;;;;40.08;19.15;;;3.30;99.90;;;;;;5113251;28;20453;-68
2022/12/02 05:21:36;;;;;;;37.05;19.55;;;3.30;99.90;;;;;;5112800;28;20047;-68
2022/12/02 05:24:01;;;;;;;35.80;19.30;;;3.30;99.90;;;;;;5096718;28;20400;-68
2022/12/02 05:26:27;;;;;;;47.88;20.33;;;3.30;99.90;;;;;;5112821;28;20062;-69
2022/12/02 05:28:52;;;;;;;42.72;19.75;;;3.30;99.90;;;;;;5112594;28;20055;-68
2022/12/02 05:31:18;;;;;;;35.63;19.35;;;3.30;99.90;;;;;;5112887;28;20046;-68
2022/12/02 05:33:44;;;;;;;42.45;21.75;;;3.30;99.90;;;;;;5095554;28;20031;-69
2022/12/02 05:36:11;;;;;;;42.85;21.27;;;3.20;99.90;;;;;;5113088;28;20031;-68
2022/12/02 05:38:38;;;;;;;42.47;21.10;;;3.30;99.90;;;;;;5114800;28;20044;-68
2022/12/02 05:41:04;;;;;;;45.45;20.20;;;3.20;99.90;;;;;;5112155;28;20046;-68
2022/12/02 05:43:40;;;;;;;49.25;22.27;;;3.20;99.90;;;;;;5113226;28;20476;-68
2022/12/02 05:46:15;;;;;;;47.28;23.10;;;3.20;99.90;;;;;;5113909;28;20480;-69
2022/12/02 05:48:42;;;;;;;49.35;22.42;;;3.20;99.90;;;;;;5112347;28;20040;-69
2022/12/02 05:51:12;;;;;;;43.00;21.75;;;3.20;99.90;;;;;;5113546;28;20123;-69
2022/12/02 05:53:40;;;;;;;45.70;22.33;;;3.20;99.90;;;;;;5114350;28;20032;-69
2022/12/02 05:56:13;;;;;;;48.88;22.42;;;3.20;99.90;;;;;;5112964;28;20039;-68
2022/12/02 05:58:39;;;;;;;54.90;23.42;;;3.20;99.90;;;;;;5112968;28;20036;-68
2022/12/02 06:01:25;;;;;;;51.20;24.85;;;3.20;99.90;;;;;;5112435;28;20115;-69
2022/12/02 06:03:50;;;;;;;54.42;23.65;;;3.20;99.90;;;;;;5111941;28;20039;-69
2022/12/02 06:06:22;;;;;;;48.90;25.65;;;3.10;99.90;;;;;;5112082;28;20070;-69
2022/12/02 06:08:47;;;;;;;53.78;25.75;;;3.20;99.90;;;;;;5114074;28;20036;-69
2022/12/02 06:11:27;;;;;;;56.85;23.85;;;3.10;99.90;;;;;;5112710;28;20039;-69
2022/12/02 06:14:00;;;;;;;45.83;22.17;;;3.10;99.90;;;;;;5112714;28;20495;-69
2022/12/02 06:16:28;;;;;;;44.90;21.30;;;3.10;99.90;;;;;;5111184;28;20054;-69
2022/12/02 06:18:54;;;;;;;54.60;22.10;;;3.10;99.90;;;;;;5113854;28;20040;-68
2022/12/02 06:21:22;;;;;;;51.15;21.05;;;3.00;99.90;;;;;;5111926;28;20051;-69
2022/12/02 06:23:55;;;;;;;41.05;22.13;;;3.00;99.90;;;;;;5111605;28;20114;-69
2022/12/02 06:26:21;;;;;;;50.55;23.75;;;3.00;99.90;;;;;;5111635;28;20051;-69
2022/12/02 06:28:51;;;;;;;50.22;23.05;;;3.00;99.90;;;;;;5112170;28;20168;-69
2022/12/02 06:31:30;;;;;;;52.53;24.40;;;3.00;99.90;;;;;;5110998;28;20071;-69
2022/12/02 06:33:59;;;;;;;45.53;21.30;;;2.90;99.90;;;;;;5112570;28;20046;-69
2022/12/02 06:36:28;;;;;;;46.35;22.92;;;3.00;99.90;;;;;;5111640;28;20054;-69
2022/12/02 06:38:57;;;;;;;52.28;23.17;;;3.00;99.90;;;;;;5112547;28;20043;-68
2022/12/02 06:41:29;;;;;;;55.17;21.75;;;2.90;99.90;;;;;;5112859;28;20040;-69
2022/12/02 06:46:43;;;;;;;63.88;26.02;;;2.90;99.90;;;;;;5111943;28;20100;-69
2022/12/02 06:49:20;;;;;;;48.47;23.23;;;2.90;99.90;;;;;;5111369;28;20035;-69
2022/12/02 06:51:54;;;;;;;58.92;26.67;;;2.90;99.90;;;;;;5112358;28;20053;-69
2022/12/02 06:54:23;;;;;;;53.20;25.30;;;2.90;99.90;;;;;;5111262;28;20136;-69
2022/12/02 06:56:50;;;;;;;53.88;23.17;;;2.90;99.90;;;;;;5111889;28;20051;-69
2022/12/02 06:59:20;;;;;;;56.67;25.67;;;2.90;99.90;;;;;;5110384;28;20039;-69
2022/12/02 07:01:46;;;;;;;53.55;24.45;;;2.90;99.90;;;;;;5095028;28;20043;-69
2022/12/02 07:04:53;;;;;;;46.60;21.08;;;2.90;99.90;;;;;;5094070;28;20079;-69
2022/12/02 07:07:23;;;;;;;51.65;23.38;;;3.00;99.90;;;;;;5107600;28;20047;-69
2022/12/02 07:09:56;;;;;;;47.13;22.58;;;3.00;99.90;;;;;;5112991;28;20040;-68
2022/12/02 07:12:33;;;;;;;46.90;24.15;;;3.00;99.90;;;;;;5112318;28;20042;-69
2022/12/02 07:15:24;;;;;;;45.70;22.08;;;3.00;99.90;;;;;;5112746;28;20042;-69
2022/12/02 07:17:50;;;;;;;44.03;21.33;;;3.00;99.90;;;;;;5111549;28;20051;-69
2022/12/02 07:20:33;;;;;;;45.53;22.15;;;3.00;99.90;;;;;;5110304;28;20433;-69
2022/12/02 07:23:21;;;;;;;41.15;21.98;;;3.00;99.90;;;;;;5111453;28;20495;-69
2022/12/02 07:25:50;;;;;;;44.83;22.58;;;3.00;99.90;;;;;;5112826;28;20055;-69
2022/12/02 07:28:23;;;;;;;47.80;19.80;;;3.00;99.90;;;;;;5111599;28;20082;-69
2022/12/02 07:30:55;;;;;;;45.83;23.20;;;3.00;99.90;;;;;;5112898;28;20031;-69
2022/12/02 07:33:21;;;;;;;40.45;20.85;;;3.00;99.90;;;;;;5110840;28;20047;-69
2022/12/02 07:35:46;;;;;;;46.20;22.67;;;3.00;99.90;;;;;;5112010;28;20051;-69
2022/12/02 07:38:12;;;;;;;40.63;19.33;;;3.00;99.90;;;;;;5112140;28;20527;-69
2022/12/02 07:40:38;;;;;;;49.28;22.20;;;3.00;99.90;;;;;;5110977;28;20499;-69
2022/12/02 07:43:05;;;;;;;39.65;21.02;;;2.90;99.90;;;;;;5111192;28;20444;-69
2022/12/02 07:45:31;;;;;;;47.17;21.77;;;2.90;99.90;;;;;;5111410;28;20100;-68
2022/12/02 07:47:57;;;;;;;48.13;23.85;;;2.90;99.90;;;;;;5110358;28;20162;-68
2022/12/02 07:50:22;;;;;;;45.50;21.25;;;2.90;99.90;;;;;;5110052;28;20482;-69
2022/12/02 07:52:52;;;;;;;43.25;21.27;;;2.90;99.90;;;;;;5106905;28;20119;-68
2022/12/02 07:55:18;;;;;;;47.92;20.55;;;2.90;99.90;;;;;;5088077;28;20396;-68
2022/12/02 07:57:44;;;;;;;42.95;21.15;;;2.90;99.90;;;;;;5107506;28;20035;-68
2022/12/02 08:00:10;;;;;;;43.85;22.58;;;2.90;99.90;;;;;;5114094;28;20152;-68
2022/12/02 08:02:36;;;;;;;39.45;20.77;;;2.90;99.90;;;;;;5108107;28;20457;-67
2022/12/02 08:05:02;;;;;;;42.05;20.05;;;2.90;99.90;;;;;;5093784;28;20166;-68
2022/12/02 08:07:28;;;;;;;52.33;24.42;;;2.90;99.90;;;;;;5092121;28;20119;-67
2022/12/02 08:09:53;;;;;;;38.20;19.65;;;3.00;99.90;;;;;;5092332;28;20143;-67
2022/12/02 08:12:19;;;;;;;42.53;21.98;;;3.20;99.90;;;;;;5092060;28;20097;-68
2022/12/02 08:14:45;;;;;;;37.15;19.50;;;3.30;99.90;;;;;;5092094;28;20044;-68
2022/12/02 08:17:10;;;;;;;29.20;13.88;;;3.40;99.90;;;;;;5109078;28;20043;-67
2022/12/02 08:19:36;;;;;;;39.75;17.48;;;3.60;99.90;;;;;;5111827;28;20089;-67
2022/12/02 08:22:02;;;;;;;35.38;16.25;;;3.70;99.90;;;;;;5109667;28;20039;-66
2022/12/02 08:24:28;;;;;;;33.17;16.10;;;3.70;99.90;;;;;;5108076;27;20038;-67
2022/12/02 08:26:53;;;;;;;35.35;16.10;;;3.80;99.90;;;;;;5109795;28;20129;-67
2022/12/02 08:29:19;;;;;;;40.05;19.35;;;3.80;99.90;;;;;;5111630;28;20050;-67
2022/12/02 08:31:44;;;;;;;37.13;17.20;;;3.90;99.90;;;;;;5112695;28;20042;-67
2022/12/02 08:34:10;;;;;;;45.25;19.65;;;3.90;99.90;;;;;;5112121;28;20042;-66
2022/12/02 08:55:33;;;;;;;38.88;19.08;;;3.70;99.90;;;;;;5093680;28;20527;-66
2022/12/02 08:57:58;;;;;;;46.15;20.30;;;3.70;99.90;;;;;;5108994;28;20043;-67
2022/12/02 09:00:24;;;;;;;45.05;20.55;;;3.60;99.90;;;;;;5110180;28;20126;-66
2022/12/02 09:02:50;;;;;;;43.17;20.38;;;3.60;99.90;;;;;;5111446;28;20043;-66
2022/12/02 09:05:16;;;;;;;40.58;19.65;;;3.60;99.90;;;;;;5109431;28;20100;-66
2022/12/02 09:07:42;;;;;;;39.67;18.90;;;3.50;99.90;;;;;;5105092;28;20046;-66
2022/12/02 09:10:09;;;;;;;43.97;18.70;;;3.50;99.90;;;;;;5111001;28;20035;-66
2022/12/02 09:12:35;;;;;;;40.90;20.10;;;3.40;99.90;;;;;;5109143;28;20039;-67
2022/12/02 09:15:00;;;;;;;44.45;19.63;;;3.40;99.90;;;;;;5110412;28;20039;-66
2022/12/02 09:17:26;;;;;;;35.35;18.80;;;3.40;99.90;;;;;;5093907;28;20048;-66
2022/12/02 09:19:52;;;;;;;30.65;15.10;;;3.30;99.90;;;;;;5092143;28;20046;-67
2022/12/02 09:22:17;;;;;;;38.38;19.13;;;3.20;99.90;;;;;;5103608;28;20043;-67
2022/12/02 09:24:43;;;;;;;37.83;19.77;;;3.10;99.90;;;;;;5110326;28;20123;-67
2022/12/02 09:27:09;;;;;;;31.48;16.92;;;3.10;99.90;;;;;;5097913;28;20082;-67
2022/12/02 09:29:34;;;;;;;28.45;14.45;;;3.00;99.90;;;;;;5110484;28;20050;-66
2022/12/02 09:32:06;;;;;;;26.30;15.05;;;3.00;99.90;;;;;;5103576;28;20054;-66
2022/12/02 09:34:32;;;;;;;36.45;17.00;;;2.90;99.90;;;;;;5110591;28;20476;-66
2022/12/02 09:36:58;;;;;;;41.35;20.98;;;2.90;99.90;;;;;;5110787;28;20042;-65
2022/12/02 09:39:23;;;;;;;65.53;32.22;;;2.90;99.90;;;;;;5108383;28;20051;-69
2022/12/02 09:41:49;;;;;;;37.42;18.55;;;2.80;99.90;;;;;;5107554;28;20051;-68
2022/12/02 09:44:15;;;;;;;32.08;13.68;;;2.80;99.90;;;;;;5108684;28;20040;-69
2022/12/02 09:46:41;;;;;;;33.88;16.25;;;2.70;99.90;;;;;;5110685;28;20456;-70
2022/12/02 09:49:07;;;;;;;32.38;16.30;;;2.80;99.90;;;;;;5108512;28;20442;-70
2022/12/02 09:51:33;;;;;;;25.17;12.90;;;2.70;99.90;;;;;;5109524;28;20450;-67
2022/12/02 09:53:59;;;;;;;33.83;16.02;;;2.70;99.90;;;;;;5110435;28;20070;-67
2022/12/02 09:56:25;;;;;;;34.65;18.38;;;2.70;99.90;;;;;;5108819;28;20069;-66
2022/12/02 09:58:55;;;;;;;33.78;15.07;;;2.80;99.90;;;;;;5111246;28;20036;-67
2022/12/02 10:01:20;;;;;;;37.53;19.60;;;2.80;99.90;;;;;;5109477;28;20047;-65
2022/12/02 10:03:49;;;;;;;32.58;15.60;;;2.80;99.90;;;;;;5111559;28;20457;-66
2022/12/02 10:06:21;;;;;;;37.45;19.88;;;2.70;99.90;;;;;;5113260;28;20053;-69
2022/12/02 10:08:46;;;;;;;33.67;17.27;;;2.70;99.90;;;;;;5110500;28;20089;-67
2022/12/02 10:11:26;;;;;;;37.88;21.20;;;2.70;99.90;;;;;;5112135;28;20051;-68
2022/12/02 10:13:53;;;;;;;41.53;18.83;;;2.70;99.90;;;;;;5112423;28;20040;-68
2022/12/02 10:16:19;;;;;;;35.00;16.85;;;2.70;99.90;;;;;;5112357;28;20047;-68
2022/12/02 10:18:46;;;;;;;42.72;19.05;;;2.70;99.90;;;;;;5112623;28;20464;-67
2022/12/02 10:21:12;;;;;;;33.67;16.67;;;2.70;99.90;;;;;;5095159;28;20368;-68
2022/12/02 10:23:52;;;;;;;45.17;22.23;;;2.70;99.90;;;;;;5111660;28;20092;-68
2022/12/02 10:26:18;;;;;;;44.25;23.20;;;2.70;99.90;;;;;;5112533;28;20054;-68
2022/12/02 10:29:04;;;;;;;31.75;13.90;;;2.80;99.90;;;;;;5095411;28;20523;-69
2022/12/02 10:31:30;;;;;;;;;;;2.70;99.90;;;;;;5113049;28;20425;-68
2022/12/02 10:34:01;;;;;;;34.78;16.90;;;2.60;99.90;;;;;;5111753;28;19923;-68
2022/12/02 10:36:35;;;;;;;32.88;17.38;;;2.60;99.90;;;;;;5111910;28;20040;-67
2022/12/02 10:39:19;;;;;;;32.50;16.10;;;2.60;99.90;;;;;;5092559;28;20052;-68
2022/12/02 10:41:46;;;;;;;31.15;16.27;;;2.60;99.90;;;;;;5111720;28;20081;-68
2022/12/02 10:44:20;;;;;;;27.10;14.48;;;2.60;99.90;;;;;;5093845;28;20492;-68
2022/12/02 10:46:47;;;;;;;28.35;14.63;;;2.70;99.90;;;;;;5112620;28;20078;-68
2022/12/02 10:49:26;;;;;;;29.58;15.65;;;2.80;99.90;;;;;;5112451;28;20065;-68
2022/12/02 10:51:54;;;;;;;31.85;13.88;;;2.90;99.90;;;;;;5112428;28;20042;-68
2022/12/02 10:54:28;;;;;;;28.77;12.43;;;2.90;99.90;;;;;;5110790;28;20043;-68
2022/12/02 10:56:59;;;;;;;27.98;13.75;;;3.00;99.90;;;;;;5111214;28;20035;-68
2022/12/02 10:59:25;;;;;;;27.98;14.65;;;3.00;99.90;;;;;;5104781;28;20062;-69
2022/12/02 11:01:52;;;;;;;26.60;13.63;;;2.90;99.90;;;;;;5108989;28;20047;-69
2022/12/02 11:04:18;;;;;;;27.65;15.02;;;2.90;99.90;;;;;;5108308;28;20122;-68
2022/12/02 11:06:44;;;;;;;30.30;13.90;;;2.90;99.90;;;;;;5106240;28;20201;-69
2022/12/02 11:09:19;;;;;;;37.20;19.23;;;2.80;99.90;;;;;;5106931;28;20039;-68
2022/12/02 11:11:46;;;;;;;34.85;16.45;;;2.80;99.90;;;;;;5069973;28;20495;-68
2022/12/02 11:14:54;;;;;;;38.33;19.48;;;2.70;99.90;;;;;;5092579;28;20046;-68
2022/12/02 11:17:57;;;;;;;57.83;30.58;;;2.70;99.90;;;;;;4989562;28;20144;-68
2022/12/02 11:20:40;;;;;;;52.58;27.70;;;2.70;99.90;;;;;;5005655;28;20174;-69
2022/12/02 11:23:29;;;;;;;56.40;29.50;;;2.70;99.90;;;;;;5088940;28;20130;-68
2022/12/02 11:25:59;;;;;;;38.85;17.98;;;2.70;99.90;;;;;;5090107;28;20105;-68
2022/12/02 11:28:28;;;;;;;34.10;17.98;;;2.80;99.90;;;;;;5107688;28;20043;-68
2022/12/02 11:31:09;;;;;;;31.13;17.50;;;2.70;99.90;;;;;;5108958;28;20043;-67
2022/12/02 11:33:47;;;;;;;32.97;15.85;;;2.70;99.90;;;;;;5111365;28;20050;-68
2022/12/02 11:36:16;;;;;;;38.35;20.92;;;2.70;99.90;;;;;;5112343;28;20423;-68
2022/12/02 11:38:50;;;;;;;44.92;23.00;;;2.70;99.90;;;;;;5111767;28;20043;-68
2022/12/02 11:41:28;;;;;;;35.65;19.55;;;2.60;99.90;;;;;;5111419;28;20134;-68
2022/12/02 11:44:23;;;;;;;38.63;22.38;;;2.60;99.90;;;;;;5108297;28;20050;-69
2022/12/02 11:46:52;;;;;;;44.03;24.70;;;2.60;99.90;;;;;;5110638;28;20059;-68
2022/12/02 11:49:29;;;;;;;44.28;22.73;;;2.60;99.90;;;;;;5111946;28;20043;-68
2022/12/02 11:52:17;;;;;;;35.17;18.35;;;2.70;99.90;;;;;;5112034;28;20399;-68
2022/12/02 11:55:01;;;;;;;37.05;20.20;;;2.80;99.90;;;;;;5111769;28;20385;-69
2022/12/02 11:57:42;;;;;;;38.72;20.90;;;2.80;99.90;;;;;;5113738;28;20039;-68
2022/12/02 12:00:22;;;;;;;39.63;19.10;;;2.90;99.90;;;;;;5114725;28;20036;-69
2022/12/02 12:03:04;;;;;;;39.70;20.58;;;3.00;99.90;;;;;;5114244;28;20044;-69
2022/12/02 12:05:30;;;;;;;40.83;21.35;;;3.10;99.90;;;;;;5114923;28;20048;-69
2022/12/02 12:07:55;;;;;;;37.05;19.42;;;3.20;99.90;;;;;;5114074;28;20047;-69
2022/12/02 12:10:41;;;;;;;38.33;19.70;;;3.20;99.90;;;;;;5133485;27;20038;-69
2022/12/02 12:13:13;;;;;;;40.42;21.70;;;3.30;99.90;;;;;;5123779;27;20043;-69
2022/12/02 12:16:01;;;;;;;36.00;20.88;;;3.40;99.90;;;;;;5115925;28;20036;-68
2022/12/02 12:18:46;;;;;;;42.53;22.67;;;3.50;99.90;;;;;;5113663;28;20047;-70
2022/12/02 12:21:14;;;;;;;40.83;23.40;;;3.50;99.90;;;;;;5114177;28;20035;-67
2022/12/02 12:23:43;;;;;;;39.83;21.65;;;3.50;99.90;;;;;;5113253;28;20051;-69
2022/12/02 12:26:29;;;;;;;36.15;20.70;;;3.50;99.90;;;;;;5115303;28;20416;-69
2022/12/02 12:28:55;;;;;;;33.65;19.17;;;3.60;99.90;;;;;;5114047;28;20069;-69
2022/12/02 12:31:20;;;;;;;33.85;17.52;;;3.60;99.90;;;;;;5114149;28;20035;-69
2022/12/02 12:33:46;;;;;;;34.92;20.25;;;3.50;99.90;;;;;;5114432;28;20049;-68
2022/12/02 12:36:12;;;;;;;35.30;17.98;;;3.50;99.90;;;;;;5114206;28;20098;-69
2022/12/02 12:38:38;;;;;;;35.42;17.90;;;3.50;99.90;;;;;;5114351;28;20066;-69
2022/12/02 12:41:03;;;;;;;35.47;19.48;;;3.50;99.90;;;;;;5115562;28;20043;-69
2022/12/02 12:43:29;;;;;;;37.60;19.48;;;3.40;99.90;;;;;;5112951;28;20070;-68
2022/12/02 12:45:55;;;;;;;29.88;16.95;;;3.50;99.90;;;;;;5114360;28;20047;-68
2022/12/02 12:48:20;;;;;;;31.65;16.67;;;3.60;99.90;;;;;;5113092;28;20148;-69
2022/12/02 12:50:46;;;;;;;28.45;16.25;;;3.60;99.90;;;;;;5113763;28;20046;-68
2022/12/02 12:53:11;;;;;;;28.13;16.38;;;3.60;99.90;;;;;;5095948;28;20061;-69
2022/12/02 12:55:42;;;;;;;28.58;15.60;;;3.50;99.90;;;;;;5115440;28;20072;-68
2022/12/02 12:58:08;;;;;;;26.30;14.77;;;3.50;99.90;;;;;;5113095;28;20128;-69
2022/12/02 13:00:34;;;;;;;32.47;16.13;;;3.40;99.90;;;;;;5113984;28;20503;-68
2022/12/02 13:02:59;;;;;;;29.95;16.70;;;3.40;99.90;;;;;;5113780;28;20403;-66
2022/12/02 13:05:25;;;;;;;33.38;17.50;;;3.40;99.90;;;;;;5114188;27;20039;-68
2022/12/02 13:07:51;;;;;;;30.67;17.17;;;3.40;99.90;;;;;;5112815;28;20039;-66
2022/12/02 13:10:17;;;;;;;30.27;17.23;;;3.40;99.90;;;;;;5113237;28;20035;-67
2022/12/02 13:12:43;;;;;;;31.35;16.92;;;3.40;99.90;;;;;;5112859;28;20034;-67